Time;durP1;ratioP1;P1;durP2;ratioP2;P2;SDS_P1;SDS_P2;PMS_P1;PMS_P2;Temp;Humidity;BMP_temperature;BMP_pressure;BME280_temperature;BME280_humidity;BME280_pressure;Samples;Min_cycle;Max_cycle;Signal;HPM_P1;HPM_P2
2023/05/05 00:02:22;;;;;;;8.43;5.57;;;8.10;99.90;;;;;;5015145;28;20561;-77
2023/05/05 00:04:50;;;;;;;6.27;5.17;;;8.10;99.90;;;;;;5018709;28;20245;-76
2023/05/05 00:07:18;;;;;;;8.67;5.50;;;8.10;99.90;;;;;;5035601;28;20291;-78
2023/05/05 00:09:46;;;;;;;7.87;5.30;;;8.00;99.90;;;;;;5036177;28;20208;-77
2023/05/05 00:12:14;;;;;;;7.30;5.17;;;8.00;99.90;;;;;;5025503;28;20564;-77
2023/05/05 00:14:43;;;;;;;7.47;5.30;;;8.00;99.90;;;;;;5016157;28;20232;-75
2023/05/05 00:17:11;;;;;;;6.83;5.23;;;7.90;99.90;;;;;;5015991;28;20339;-77
2023/05/05 00:19:40;;;;;;;9.57;5.30;;;7.90;99.90;;;;;;5016296;28;20206;-77
2023/05/05 00:22:08;;;;;;;7.43;5.63;;;7.90;99.90;;;;;;5014974;28;20244;-78
2023/05/05 00:24:36;;;;;;;6.73;5.20;;;7.80;99.90;;;;;;5015699;28;20212;-77
2023/05/05 00:27:04;;;;;;;7.80;5.50;;;7.80;99.90;;;;;;5015407;28;20225;-77
2023/05/05 00:29:32;;;;;;;6.40;5.23;;;7.70;99.90;;;;;;5015784;28;20220;-78
2023/05/05 00:32:01;;;;;;;7.30;5.50;;;7.70;99.90;;;;;;5015411;28;20209;-77
2023/05/05 00:34:29;;;;;;;7.37;5.20;;;7.70;99.90;;;;;;5015915;28;20237;-78
2023/05/05 00:36:57;;;;;;;7.70;5.50;;;7.60;99.90;;;;;;5015114;28;20230;-77
2023/05/05 00:39:25;;;;;;;7.63;5.40;;;7.60;99.90;;;;;;5015528;28;20616;-78
2023/05/05 00:41:53;;;;;;;8.37;5.70;;;7.60;99.90;;;;;;5015089;28;20663;-77
2023/05/05 00:44:39;;;;;;;8.07;5.60;;;7.50;99.90;;;;;;5015052;28;20213;-78
2023/05/05 00:47:09;;;;;;;9.40;5.70;;;7.50;99.90;;;;;;5015533;28;20301;-76
2023/05/05 00:49:37;;;;;;;7.13;5.77;;;7.50;99.90;;;;;;5014880;28;20217;-77
2023/05/05 00:52:06;;;;;;;7.00;5.77;;;7.50;99.90;;;;;;5014908;28;20220;-76
2023/05/05 00:54:35;;;;;;;7.63;5.90;;;7.40;99.90;;;;;;5014750;28;20702;-77
2023/05/05 00:57:03;;;;;;;6.13;5.43;;;7.40;99.90;;;;;;5015036;28;20252;-78
2023/05/05 00:59:33;;;;;;;9.10;5.97;;;7.40;99.90;;;;;;5015847;28;20216;-77
2023/05/05 01:02:01;;;;;;;8.93;6.00;;;7.40;99.90;;;;;;5015003;28;20292;-76
2023/05/05 01:04:31;;;;;;;9.40;5.83;;;7.30;99.90;;;;;;5015004;28;20695;-76
2023/05/05 01:07:14;;;;;;;12.57;6.13;;;7.30;99.90;;;;;;5015309;28;20215;-75
2023/05/05 01:09:49;;;;;;;8.70;6.00;;;7.20;99.90;;;;;;5015220;28;20205;-78
2023/05/05 01:12:37;;;;;;;9.50;6.10;;;7.20;99.90;;;;;;5014964;28;20214;-76
2023/05/05 01:15:15;;;;;;;7.60;5.90;;;7.20;99.90;;;;;;5014420;28;20329;-78
2023/05/05 01:17:47;;;;;;;8.13;5.90;;;7.20;99.90;;;;;;5014540;28;20225;-77
2023/05/05 01:20:23;;;;;;;11.13;5.93;;;7.10;99.90;;;;;;5014912;28;20296;-77
2023/05/05 01:22:59;;;;;;;10.10;6.40;;;7.10;99.90;;;;;;5014051;28;20237;-77
2023/05/05 01:25:47;;;;;;;8.20;6.40;;;7.00;99.90;;;;;;5014898;28;20276;-77
2023/05/05 01:28:31;;;;;;;8.77;6.27;;;7.00;99.90;;;;;;5014560;28;20210;-76
2023/05/05 01:31:09;;;;;;;7.77;6.73;;;7.00;99.90;;;;;;5014576;28;20221;-76
2023/05/05 01:33:44;;;;;;;8.00;6.03;;;7.00;99.90;;;;;;5014285;28;20209;-75
2023/05/05 01:36:21;;;;;;;10.67;6.30;;;7.00;99.90;;;;;;5014770;28;20216;-73
2023/05/05 01:38:54;;;;;;;8.87;6.60;;;7.00;99.90;;;;;;5017336;28;20197;-74
2023/05/05 01:41:26;;;;;;;8.30;6.40;;;7.00;99.90;;;;;;5024261;28;20241;-79
2023/05/05 01:43:56;;;;;;;7.70;6.33;;;7.00;99.90;;;;;;5014664;28;20201;-79
2023/05/05 01:46:25;;;;;;;9.20;5.83;;;7.00;99.90;;;;;;5031946;28;20543;-75
2023/05/05 01:48:55;;;;;;;11.73;6.13;;;7.00;99.90;;;;;;5033738;28;20228;-78
2023/05/05 01:51:26;;;;;;;10.57;6.33;;;7.00;99.90;;;;;;5033472;28;20244;-78
2023/05/05 01:53:58;;;;;;;7.10;6.10;;;7.00;99.90;;;;;;5019677;28;20298;-78
2023/05/05 01:56:26;;;;;;;8.73;6.23;;;7.00;99.90;;;;;;5013661;28;20213;-78
2023/05/05 01:58:56;;;;;;;8.83;6.10;;;7.00;99.90;;;;;;5013777;28;20230;-79
2023/05/05 02:01:26;;;;;;;8.43;6.27;;;6.90;99.90;;;;;;5014002;28;20220;-78
2023/05/05 02:03:57;;;;;;;8.20;6.30;;;6.80;99.90;;;;;;5024382;28;20209;-79
2023/05/05 02:06:31;;;;;;;9.93;6.00;;;6.80;99.90;;;;;;5033267;28;20213;-78
2023/05/05 02:09:00;;;;;;;9.23;5.90;;;6.80;99.90;;;;;;5033495;28;20568;-79
2023/05/05 02:11:29;;;;;;;8.17;5.97;;;6.80;99.90;;;;;;5021952;28;20220;-78
2023/05/05 02:13:58;;;;;;;8.37;5.67;;;6.80;99.90;;;;;;5013398;28;20229;-78
2023/05/05 02:16:29;;;;;;;8.70;5.93;;;6.70;99.90;;;;;;5013356;28;20210;-78
2023/05/05 02:19:03;;;;;;;10.13;6.33;;;6.70;99.90;;;;;;5014035;28;20242;-79
2023/05/05 02:21:32;;;;;;;7.13;5.80;;;6.70;99.90;;;;;;5012874;28;20229;-77
2023/05/05 02:24:01;;;;;;;7.07;5.50;;;6.70;99.90;;;;;;5013249;28;20206;-77
2023/05/05 02:26:33;;;;;;;7.57;5.20;;;6.70;99.90;;;;;;5012797;28;20248;-75
2023/05/05 02:29:06;;;;;;;6.17;5.20;;;6.70;99.90;;;;;;5013404;28;20198;-77
2023/05/05 02:31:38;;;;;;;10.73;5.77;;;6.70;99.90;;;;;;5013176;28;20397;-76
2023/05/05 02:34:08;;;;;;;8.83;5.23;;;6.70;99.90;;;;;;5012901;28;20213;-79
2023/05/05 02:36:39;;;;;;;6.97;5.10;;;6.60;99.90;;;;;;5013095;28;20214;-80
2023/05/05 02:39:13;;;;;;;7.63;5.50;;;6.60;99.90;;;;;;5031016;28;20221;-78
2023/05/05 02:41:44;;;;;;;8.30;5.60;;;6.60;99.90;;;;;;5032772;28;20220;-78
2023/05/05 02:44:13;;;;;;;7.13;5.37;;;6.60;99.90;;;;;;5032506;28;20305;-79
2023/05/05 02:46:42;;;;;;;8.33;5.17;;;6.50;99.90;;;;;;5032053;28;20236;-79
2023/05/05 02:49:12;;;;;;;8.33;5.20;;;6.50;99.90;;;;;;5013037;28;20562;-78
2023/05/05 02:51:40;;;;;;;8.37;5.43;;;6.50;99.90;;;;;;5012845;28;20228;-79
2023/05/05 02:54:08;;;;;;;8.87;6.33;;;6.40;99.90;;;;;;5012875;28;20220;-78
2023/05/05 02:56:41;;;;;;;7.83;5.60;;;6.40;99.90;;;;;;5013120;28;20205;-79
2023/05/05 02:59:14;;;;;;;7.33;5.67;;;6.40;99.90;;;;;;5012750;28;20221;-78
2023/05/05 03:01:56;;;;;;;8.70;6.00;;;6.40;99.90;;;;;;5016921;28;20697;-79
2023/05/05 03:04:31;;;;;;;8.63;5.23;;;6.30;99.90;;;;;;5032725;28;20213;-78
2023/05/05 03:07:07;;;;;;;8.07;5.13;;;6.40;99.90;;;;;;5018616;28;20201;-79
2023/05/05 03:09:40;;;;;;;6.83;5.20;;;6.40;99.90;;;;;;5012962;28;20209;-78
2023/05/05 03:12:11;;;;;;;8.70;5.27;;;6.40;99.90;;;;;;5012539;28;20213;-79
2023/05/05 03:14:43;;;;;;;6.77;5.57;;;6.30;99.90;;;;;;5012850;28;20208;-79
2023/05/05 03:17:12;;;;;;;6.63;5.37;;;6.30;99.90;;;;;;5014086;28;20248;-79
2023/05/05 03:19:44;;;;;;;9.30;5.63;;;6.30;99.90;;;;;;5013204;28;20610;-79
2023/05/05 03:22:12;;;;;;;8.40;5.83;;;6.30;99.90;;;;;;5012206;28;20257;-78
2023/05/05 03:24:41;;;;;;;7.90;5.87;;;6.30;99.90;;;;;;5026503;28;20209;-76
2023/05/05 03:27:09;;;;;;;7.97;5.63;;;6.30;99.90;;;;;;5032723;28;20667;-75
2023/05/05 03:29:37;;;;;;;6.60;5.57;;;6.30;99.90;;;;;;5032260;28;20200;-74
2023/05/05 03:32:05;;;;;;;9.43;5.70;;;6.30;99.90;;;;;;5031763;28;20231;-76
2023/05/05 03:34:36;;;;;;;6.93;5.77;;;6.30;99.90;;;;;;5031943;28;20278;-74
2023/05/05 03:37:05;;;;;;;9.70;6.13;;;6.20;99.90;;;;;;5032838;28;20229;-76
2023/05/05 03:39:33;;;;;;;7.63;5.57;;;6.20;99.90;;;;;;5036847;28;20235;-74
2023/05/05 03:42:01;;;;;;;7.33;6.23;;;6.20;99.90;;;;;;5025966;28;20216;-75
2023/05/05 03:44:29;;;;;;;9.43;6.23;;;6.20;99.90;;;;;;5016687;28;20216;-73
2023/05/05 03:46:57;;;;;;;7.07;5.90;;;6.20;99.90;;;;;;5016537;28;20594;-75
2023/05/05 03:49:25;;;;;;;10.83;6.37;;;6.20;99.90;;;;;;5016616;28;20210;-75
2023/05/05 03:51:53;;;;;;;8.90;5.90;;;6.20;99.90;;;;;;5015695;28;20331;-75
2023/05/05 03:54:22;;;;;;;7.33;5.50;;;6.20;99.90;;;;;;5016299;28;20209;-75
2023/05/05 03:56:50;;;;;;;8.17;5.50;;;6.30;99.90;;;;;;5016663;28;20212;-74
2023/05/05 03:59:18;;;;;;;11.70;5.60;;;6.30;99.90;;;;;;5016024;28;20229;-75
2023/05/05 04:01:48;;;;;;;6.90;5.37;;;6.30;99.90;;;;;;5032752;28;20205;-77
2023/05/05 04:04:16;;;;;;;8.50;5.70;;;6.30;99.90;;;;;;5036032;28;20208;-75
2023/05/05 04:06:44;;;;;;;8.23;5.60;;;6.30;99.90;;;;;;5031169;28;20213;-73
2023/05/05 04:09:13;;;;;;;10.50;5.60;;;6.30;99.90;;;;;;5015796;28;20240;-78
2023/05/05 04:11:42;;;;;;;7.23;5.57;;;6.40;99.90;;;;;;5015969;28;20292;-76
2023/05/05 04:14:10;;;;;;;7.67;5.20;;;6.50;99.90;;;;;;5035850;28;20216;-77
2023/05/05 04:16:38;;;;;;;7.60;5.87;;;6.50;99.90;;;;;;5035810;28;20219;-76
2023/05/05 04:19:07;;;;;;;8.30;4.87;;;6.50;99.90;;;;;;5026716;28;20312;-73
2023/05/05 04:21:35;;;;;;;6.30;5.60;;;6.60;99.90;;;;;;5023656;28;20716;-75
2023/05/05 04:24:04;;;;;;;8.20;5.30;;;6.70;99.90;;;;;;5028708;28;20213;-78
2023/05/05 04:26:32;;;;;;;9.90;5.70;;;6.70;99.90;;;;;;5034927;28;20212;-75
2023/05/05 04:29:01;;;;;;;7.73;5.37;;;6.80;99.90;;;;;;5036413;28;20223;-72
2023/05/05 04:31:30;;;;;;;8.77;6.10;;;6.80;99.90;;;;;;5034487;28;20299;-75
2023/05/05 04:33:58;;;;;;;8.30;5.83;;;6.80;99.90;;;;;;5036389;28;20547;-75
2023/05/05 04:36:27;;;;;;;7.33;5.73;;;6.90;99.90;;;;;;5036820;28;20220;-75
2023/05/05 04:38:55;;;;;;;8.43;5.30;;;7.00;99.90;;;;;;5038164;28;20227;-74
2023/05/05 04:41:23;;;;;;;8.27;5.53;;;7.20;99.90;;;;;;5029257;28;20206;-73
2023/05/05 04:43:51;;;;;;;8.03;5.17;;;7.40;99.90;;;;;;5028608;28;20207;-77
2023/05/05 04:46:20;;;;;;;8.53;5.07;;;7.50;99.90;;;;;;5034394;28;20232;-74
2023/05/05 04:48:48;;;;;;;10.37;5.30;;;7.70;99.90;;;;;;5024780;28;20201;-74
2023/05/05 04:51:16;;;;;;;9.63;5.43;;;7.80;99.90;;;;;;5015985;28;20304;-75
2023/05/05 04:53:44;;;;;;;6.73;5.13;;;7.90;99.90;;;;;;5015396;28;20217;-75
2023/05/05 04:56:12;;;;;;;6.47;5.03;;;8.00;99.90;;;;;;5014880;28;20232;-78
2023/05/05 04:58:41;;;;;;;8.17;5.20;;;8.20;99.90;;;;;;5017242;28;20240;-74
2023/05/05 05:01:09;;;;;;;8.00;5.33;;;8.20;99.90;;;;;;5027099;28;20216;-77
2023/05/05 05:03:38;;;;;;;8.50;5.50;;;8.20;99.90;;;;;;5014650;28;20210;-77
2023/05/05 05:06:07;;;;;;;7.13;5.10;;;8.30;99.90;;;;;;5014283;28;20568;-78
2023/05/05 05:08:35;;;;;;;6.90;4.83;;;8.30;99.90;;;;;;5015280;28;20234;-78
2023/05/05 05:11:03;;;;;;;9.07;5.03;;;8.30;99.90;;;;;;5015289;28;20573;-77
2023/05/05 05:13:31;;;;;;;10.20;5.57;;;8.40;99.90;;;;;;5021880;28;20637;-78
2023/05/05 05:16:00;;;;;;;7.47;4.93;;;8.50;99.90;;;;;;5029566;28;20291;-76
2023/05/05 05:18:28;;;;;;;6.53;4.67;;;8.60;99.90;;;;;;5024448;28;20287;-77
2023/05/05 05:20:57;;;;;;;8.27;5.40;;;8.70;99.90;;;;;;5032809;28;20235;-78
2023/05/05 05:23:25;;;;;;;6.23;4.83;;;8.90;99.90;;;;;;5026296;28;20221;-80
2023/05/05 05:25:53;;;;;;;5.87;5.10;;;9.00;99.90;;;;;;5013266;28;20217;-77
2023/05/05 05:28:21;;;;;;;7.03;4.70;;;9.20;99.90;;;;;;5014279;28;20216;-77
2023/05/05 05:30:49;;;;;;;5.53;4.67;;;9.30;99.90;;;;;;5014004;28;20210;-79
2023/05/05 05:33:17;;;;;;;7.67;5.23;;;9.50;99.90;;;;;;5013640;28;20222;-78
2023/05/05 05:35:45;;;;;;;6.90;4.83;;;9.80;99.90;;;;;;5015059;28;20308;-76
2023/05/05 05:38:16;;;;;;;7.17;4.10;;;10.00;99.90;;;;;;5014868;28;20338;-77
2023/05/05 05:40:44;;;;;;;7.73;4.23;;;10.20;99.90;;;;;;5014922;28;20638;-75
2023/05/05 05:43:12;;;;;;;5.73;4.50;;;10.50;99.90;;;;;;5014173;28;20572;-77
2023/05/05 05:45:40;;;;;;;8.27;4.00;;;10.60;99.90;;;;;;5018690;28;20209;-76
2023/05/05 05:48:08;;;;;;;6.07;4.40;;;10.90;99.90;;;;;;5019853;28;20213;-76
2023/05/05 05:50:36;;;;;;;5.40;3.90;;;11.10;99.90;;;;;;5015483;28;20297;-76
2023/05/05 05:53:04;;;;;;;7.47;4.20;;;11.30;99.90;;;;;;5014618;28;20212;-77
2023/05/05 05:55:34;;;;;;;6.63;3.90;;;11.60;99.90;;;;;;5014817;28;20214;-79
2023/05/05 05:58:02;;;;;;;5.63;3.73;;;12.10;99.90;;;;;;5023458;28;20205;-77
2023/05/05 06:00:31;;;;;;;7.20;3.70;;;13.00;99.90;;;;;;5017268;28;20317;-78
2023/05/05 06:02:59;;;;;;;5.73;3.60;;;14.40;99.90;;;;;;5013477;28;20230;-77
2023/05/05 06:05:27;;;;;;;5.83;3.10;;;15.60;99.90;;;;;;5014275;28;20210;-75
2023/05/05 06:07:55;;;;;;;4.00;3.10;;;16.70;99.90;;;;;;5013589;28;20205;-77
2023/05/05 06:10:23;;;;;;;4.93;3.03;;;17.40;99.90;;;;;;5014032;28;20210;-77
2023/05/05 06:12:56;;;;;;;4.73;3.10;;;17.40;99.90;;;;;;5013623;28;20194;-75
2023/05/05 06:15:24;;;;;;;4.33;3.10;;;17.70;99.90;;;;;;5014017;28;20300;-75
2023/05/05 06:17:52;;;;;;;7.10;3.40;;;18.10;99.90;;;;;;5021974;28;20205;-76
2023/05/05 06:20:20;;;;;;;4.33;3.40;;;17.80;99.90;;;;;;5033917;28;20570;-77
2023/05/05 06:22:49;;;;;;;3.87;3.13;;;17.70;99.90;;;;;;5039477;28;20256;-76
2023/05/05 06:25:17;;;;;;;5.37;3.00;;;17.40;99.90;;;;;;5033738;28;20224;-77
2023/05/05 06:27:45;;;;;;;6.67;3.20;;;17.10;99.90;;;;;;5022609;28;20205;-73
2023/05/05 06:30:15;;;;;;;6.07;3.70;;;17.40;99.90;;;;;;5013676;28;20690;-75
2023/05/05 06:32:43;;;;;;;11.10;3.40;;;18.10;99.90;;;;;;5013426;28;20215;-77
2023/05/05 06:35:12;;;;;;;4.83;3.33;;;19.10;99.90;;;;;;5022096;28;20240;-75
2023/05/05 06:37:40;;;;;;;4.97;3.23;;;20.30;99.90;;;;;;5032901;28;20209;-75
2023/05/05 06:40:10;;;;;;;6.87;3.10;;;21.10;99.90;;;;;;5033255;28;20233;-75
2023/05/05 06:42:38;;;;;;;3.87;3.13;;;21.80;97.90;;;;;;5032593;28;20209;-75
2023/05/05 06:45:07;;;;;;;6.43;3.40;;;22.40;96.70;;;;;;5022104;28;20213;-75
2023/05/05 06:47:37;;;;;;;5.50;2.97;;;22.90;95.80;;;;;;5013200;28;20224;-75
2023/05/05 06:50:07;;;;;;;5.03;2.80;;;23.40;93.40;;;;;;5012750;28;20205;-76
2023/05/05 06:52:35;;;;;;;4.00;2.90;;;24.80;90.90;;;;;;5012732;28;20710;-77
2023/05/05 06:55:04;;;;;;;4.55;2.67;;;25.40;87.60;;;;;;5013134;28;20205;-77
2023/05/05 06:57:32;;;;;;;4.95;2.60;;;25.50;85.50;;;;;;5022461;28;20210;-76
2023/05/05 07:00:00;;;;;;;3.90;2.70;;;26.70;84.20;;;;;;5013000;28;20226;-77
2023/05/05 07:02:28;;;;;;;4.75;2.83;;;27.20;79.80;;;;;;5013721;28;20719;-77
2023/05/05 07:04:58;;;;;;;4.55;3.00;;;27.60;75.40;;;;;;5032780;28;20209;-77
2023/05/05 07:07:26;;;;;;;4.40;3.10;;;27.70;71.40;;;;;;5012607;28;20336;-77
2023/05/05 07:09:54;;;;;;;4.97;2.90;;;27.50;69.60;;;;;;5012350;28;20280;-77
2023/05/05 07:12:23;;;;;;;2.83;2.50;;;28.00;68.10;;;;;;5011214;28;20217;-76
2023/05/05 07:14:51;;;;;;;5.90;3.10;;;27.50;67.70;;;;;;5013086;28;20209;-77
2023/05/05 07:17:19;;;;;;;4.28;2.97;;;27.10;68.50;;;;;;5026683;28;20217;-76
2023/05/05 07:19:47;;;;;;;4.15;2.92;;;27.20;68.90;;;;;;5033259;28;20216;-76
2023/05/05 07:22:16;;;;;;;6.20;3.10;;;26.10;69.40;;;;;;5031985;28;20262;-75
2023/05/05 07:24:44;;;;;;;3.95;3.03;;;25.20;73.40;;;;;;5018021;28;20213;-75
2023/05/05 07:27:12;;;;;;;8.00;3.50;;;24.20;78.60;;;;;;5012844;28;20221;-75
2023/05/05 07:29:40;;;;;;;5.90;3.70;;;23.60;81.60;;;;;;5013364;28;20241;-76
2023/05/05 07:32:08;;;;;;;5.17;3.47;;;22.60;86.50;;;;;;5015316;28;20610;-76
2023/05/05 07:34:39;;;;;;;4.77;4.00;;;21.70;90.60;;;;;;5020971;28;20681;-78
2023/05/05 07:37:07;;;;;;;5.43;3.63;;;21.50;93.50;;;;;;5019488;28;20197;-74
2023/05/05 07:39:37;;;;;;;5.23;3.40;;;23.00;90.60;;;;;;5020373;28;20296;-77
2023/05/05 07:42:06;;;;;;;5.32;3.67;;;23.80;87.40;;;;;;5020769;28;20275;-75
2023/05/05 07:44:34;;;;;;;4.70;3.35;;;24.50;86.10;;;;;;5016695;28;20210;-75
2023/05/05 07:47:02;;;;;;;4.05;3.65;;;26.20;77.70;;;;;;5021600;28;20205;-75
2023/05/05 07:49:30;;;;;;;4.78;3.90;;;27.10;73.40;;;;;;5021435;28;20245;-74
2023/05/05 07:51:58;;;;;;;5.93;3.67;;;27.70;69.90;;;;;;5021669;28;20236;-78
2023/05/05 07:54:27;;;;;;;7.90;4.10;;;28.20;70.60;;;;;;5023743;28;20236;-75
2023/05/05 07:56:57;;;;;;;4.05;3.65;;;28.30;66.00;;;;;;5021426;28;20208;-76
2023/05/05 07:59:25;;;;;;;6.88;4.18;;;29.40;66.60;;;;;;5022987;28;20205;-76
2023/05/05 08:01:53;;;;;;;4.55;4.00;;;29.30;64.20;;;;;;5022596;28;20237;-76
2023/05/05 08:04:22;;;;;;;5.22;4.05;;;29.20;62.10;;;;;;5020942;28;20288;-76
2023/05/05 08:06:50;;;;;;;5.95;3.80;;;29.80;59.40;;;;;;5020713;28;20248;-76
2023/05/05 08:09:18;;;;;;;5.82;4.20;;;29.50;59.40;;;;;;5021148;28;20205;-76
2023/05/05 08:11:46;;;;;;;4.88;4.13;;;28.90;60.00;;;;;;5024682;28;20271;-77
2023/05/05 08:14:15;;;;;;;7.95;4.10;;;29.40;59.40;;;;;;5019824;28;20198;-76
2023/05/05 08:16:44;;;;;;;4.50;3.88;;;29.40;59.40;;;;;;5022326;28;20201;-76
2023/05/05 08:19:13;;;;;;;4.50;4.10;;;29.80;58.40;;;;;;5026332;28;20207;-76
2023/05/05 08:21:55;;;;;;;4.43;3.78;;;29.20;60.70;;;;;;5029491;28;20213;-77
2023/05/05 08:24:26;;;;;;;7.53;4.63;;;29.70;59.50;;;;;;5013081;28;20213;-75
2023/05/05 08:26:55;;;;;;;7.30;4.57;;;30.40;56.30;;;;;;5015741;28;20272;-75
2023/05/05 08:29:25;;;;;;;6.55;5.00;;;30.00;57.50;;;;;;5015889;28;20214;-76
2023/05/05 08:31:53;;;;;;;5.15;4.65;;;30.10;55.80;;;;;;5014825;28;20676;-76
2023/05/05 08:34:21;;;;;;;7.18;4.70;;;29.90;56.60;;;;;;5015281;28;20259;-76
2023/05/05 08:36:49;;;;;;;6.20;4.40;;;29.80;58.40;;;;;;5015048;28;20215;-77
2023/05/05 08:39:17;;;;;;;4.45;4.05;;;30.20;56.40;;;;;;5015464;28;20606;-76
2023/05/05 08:41:45;;;;;;;6.55;4.35;;;30.20;59.00;;;;;;5015128;28;20209;-77
2023/05/05 08:44:14;;;;;;;8.23;4.63;;;30.80;56.20;;;;;;5015376;28;20210;-76
2023/05/05 08:46:43;;;;;;;4.95;4.07;;;29.00;55.70;;;;;;5016480;28;20671;-76
2023/05/05 08:49:15;;;;;;;5.82;4.53;;;28.60;59.80;;;;;;5014835;28;20690;-76
2023/05/05 08:51:44;;;;;;;6.90;4.90;;;29.30;58.30;;;;;;5015256;28;20221;-78
2023/05/05 08:54:17;;;;;;;9.02;4.88;;;29.70;57.90;;;;;;5026519;28;20300;-76
2023/05/05 08:56:49;;;;;;;5.43;4.32;;;30.00;57.00;;;;;;5034119;28;20241;-76
2023/05/05 08:59:19;;;;;;;6.10;4.43;;;30.00;56.40;;;;;;5034358;28;20638;-77
2023/05/05 09:01:49;;;;;;;6.75;4.70;;;31.80;53.60;;;;;;5033016;28;20208;-77
2023/05/05 09:04:18;;;;;;;5.35;4.50;;;30.80;53.10;;;;;;5034676;28;20686;-77
2023/05/05 09:06:47;;;;;;;6.68;4.32;;;30.30;54.10;;;;;;5034933;28;20211;-77
2023/05/05 09:09:15;;;;;;;7.10;4.93;;;30.40;55.30;;;;;;5030295;28;20209;-80
2023/05/05 09:11:44;;;;;;;5.53;4.40;;;28.90;57.40;;;;;;5014300;28;20710;-77
2023/05/05 09:14:13;;;;;;;5.90;5.30;;;30.20;55.60;;;;;;5014489;28;20249;-75
2023/05/05 09:16:43;;;;;;;9.00;5.18;;;30.80;53.60;;;;;;5014082;28;20213;-76
2023/05/05 09:19:12;;;;;;;7.78;5.47;;;29.30;56.40;;;;;;5014628;28;20267;-77
2023/05/05 09:21:48;;;;;;;9.00;5.68;;;27.90;57.80;;;;;;5014416;28;20209;-76
2023/05/05 09:24:16;;;;;;;7.82;5.53;;;28.60;59.40;;;;;;5023255;28;20665;-76
2023/05/05 09:26:46;;;;;;;6.22;4.65;;;28.30;59.80;;;;;;5015093;28;20209;-78
2023/05/05 09:29:18;;;;;;;6.65;6.05;;;29.20;57.70;;;;;;5013550;28;20568;-75
2023/05/05 09:32:04;;;;;;;5.82;5.22;;;29.80;57.80;;;;;;5014831;28;20263;-77
2023/05/05 09:34:35;;;;;;;7.50;5.65;;;30.10;57.40;;;;;;5014151;28;20217;-78
2023/05/05 09:37:04;;;;;;;7.60;5.20;;;30.00;57.40;;;;;;5014109;28;20296;-77
2023/05/05 09:39:33;;;;;;;6.88;5.80;;;31.40;55.60;;;;;;5014053;28;20297;-77
2023/05/05 09:42:02;;;;;;;6.30;5.70;;;30.50;56.70;;;;;;5013676;28;20227;-76
2023/05/05 09:44:34;;;;;;;6.38;5.72;;;29.80;55.10;;;;;;5014213;28;20245;-78
2023/05/05 09:47:03;;;;;;;8.70;5.20;;;30.00;56.70;;;;;;5027913;28;20253;-78
2023/05/05 09:49:38;;;;;;;6.70;5.57;;;29.80;57.30;;;;;;5038731;28;20686;-77
2023/05/05 09:52:14;;;;;;;8.63;6.25;;;30.70;56.20;;;;;;5033110;28;20312;-75
2023/05/05 09:54:42;;;;;;;8.98;6.18;;;30.70;53.50;;;;;;5038800;28;20209;-76
2023/05/05 09:57:26;;;;;;;6.35;5.75;;;30.20;57.40;;;;;;5013994;28;20587;-76
2023/05/05 09:59:56;;;;;;;6.70;4.80;;;31.10;54.40;;;;;;5013758;28;20241;-74
2023/05/05 10:02:32;;;;;;;7.28;5.15;;;31.00;54.20;;;;;;5013050;28;20216;-75
2023/05/05 10:05:09;;;;;;;7.05;5.57;;;31.40;55.30;;;;;;5013030;28;20811;-76
2023/05/05 10:07:39;;;;;;;7.28;5.60;;;30.50;55.50;;;;;;5013644;28;20209;-75
2023/05/05 10:10:10;;;;;;;7.18;5.93;;;31.00;55.10;;;;;;5033290;28;20233;-76
2023/05/05 10:12:39;;;;;;;7.55;6.00;;;29.30;55.70;;;;;;5031639;28;20767;-77
2023/05/05 10:15:08;;;;;;;6.20;5.60;;;29.80;56.10;;;;;;5032988;28;20228;-76
2023/05/05 10:17:40;;;;;;;6.00;5.50;;;30.00;57.70;;;;;;5032690;28;20292;-77
2023/05/05 10:20:23;;;;;;;6.20;5.60;;;31.10;56.50;;;;;;5028120;28;20209;-78
2023/05/05 10:22:52;;;;;;;5.63;5.03;;;29.90;55.00;;;;;;5032260;28;20639;-77
2023/05/05 10:25:26;;;;;;;9.00;6.28;;;29.20;58.70;;;;;;5030274;28;20263;-75
2023/05/05 10:27:59;;;;;;;6.57;5.32;;;28.30;57.60;;;;;;5031047;28;20200;-76
2023/05/05 10:30:30;;;;;;;7.13;4.65;;;28.90;59.00;;;;;;5029297;28;20446;-76
2023/05/05 10:33:03;;;;;;;6.90;5.00;;;30.10;57.00;;;;;;5025420;28;20236;-74
2023/05/05 10:35:55;;;;;;;5.70;5.15;;;29.30;57.30;;;;;;5031262;28;20225;-76
2023/05/05 10:38:25;;;;;;;7.03;5.20;;;29.70;56.10;;;;;;5029201;28;20320;-75
2023/05/05 10:40:56;;;;;;;7.10;3.90;;;29.80;55.70;;;;;;5031688;28;20205;-76
2023/05/05 10:43:24;;;;;;;6.18;4.28;;;30.10;55.10;;;;;;5026813;28;20432;-75
2023/05/05 10:45:53;;;;;;;5.55;3.95;;;30.50;53.90;;;;;;5032021;28;20201;-76
2023/05/05 10:48:29;;;;;;;8.50;5.85;;;30.90;52.90;;;;;;5023567;28;20212;-75
2023/05/05 10:51:08;;;;;;;6.85;5.30;;;30.50;55.20;;;;;;5031640;28;20277;-75
2023/05/05 10:53:44;;;;;;;7.82;6.10;;;31.20;54.70;;;;;;5031867;28;20308;-76
2023/05/05 10:56:24;;;;;;;7.30;5.32;;;30.10;55.10;;;;;;5032272;28;20223;-74
2023/05/05 10:58:52;;;;;;;5.63;4.30;;;30.10;55.10;;;;;;5023314;28;20241;-77
2023/05/05 11:01:32;;;;;;;5.50;4.43;;;30.40;54.10;;;;;;5012825;28;20209;-74
2023/05/05 11:04:20;;;;;;;7.80;4.10;;;30.70;53.50;;;;;;5012592;28;20213;-75
2023/05/05 11:07:23;;;;;;;6.05;5.03;;;30.40;54.00;;;;;;5015067;28;20209;-76
2023/05/05 11:09:57;;;;;;;6.80;5.50;;;30.60;54.80;;;;;;5032375;28;20217;-76
2023/05/05 11:12:25;;;;;;;8.82;8.00;;;29.60;57.20;;;;;;5033261;28;20548;-77
2023/05/05 11:15:42;;;;;;;8.73;7.35;;;28.60;58.80;;;;;;5033913;28;20631;-74
2023/05/05 11:18:30;;;;;;;8.88;6.10;;;27.70;60.70;;;;;;4922288;29;20212;-74
2023/05/05 11:21:14;;;;;;;6.25;4.85;;;27.80;61.30;;;;;;5022078;28;20211;-77
2023/05/05 11:23:44;;;;;;;5.10;4.60;;;27.70;64.60;;;;;;5030300;28;20270;-76
2023/05/05 11:26:14;;;;;;;6.63;5.90;;;27.30;64.60;;;;;;5022185;28;20205;-77
2023/05/05 11:28:57;;;;;;;7.38;5.45;;;27.40;62.50;;;;;;5032326;28;20240;-76
2023/05/05 11:31:26;;;;;;;6.47;5.88;;;26.60;64.60;;;;;;5030764;28;20213;-76
2023/05/05 11:33:54;;;;;;;7.03;6.25;;;26.50;65.00;;;;;;5028740;28;20591;-76
2023/05/05 11:36:39;;;;;;;8.90;5.75;;;26.20;65.90;;;;;;5028950;28;20248;-79
2023/05/05 11:39:09;;;;;;;7.20;4.70;;;26.20;67.70;;;;;;5032169;28;20225;-76
2023/05/05 11:42:11;;;;;;;5.30;4.80;;;26.50;68.80;;;;;;5023670;28;20210;-75
2023/05/05 11:44:41;;;;;;;7.43;6.30;;;26.90;64.60;;;;;;5011022;28;20205;-74
2023/05/05 11:47:28;;;;;;;9.23;7.80;;;27.40;66.60;;;;;;5016852;28;20197;-74
2023/05/05 11:49:57;;;;;;;10.80;7.43;;;26.80;62.30;;;;;;5030811;28;20296;-74
2023/05/05 11:52:29;;;;;;;10.17;7.43;;;26.80;65.10;;;;;;5012377;28;20320;-73
2023/05/05 11:55:02;;;;;;;7.83;6.87;;;26.30;65.10;;;;;;5011219;28;20221;-76
2023/05/05 11:57:32;;;;;;;7.47;5.93;;;26.50;65.70;;;;;;5010549;28;20260;-76
2023/05/05 12:00:02;;;;;;;7.97;5.73;;;26.60;63.50;;;;;;5013194;28;20216;-73
2023/05/05 12:02:31;;;;;;;8.03;6.67;;;25.90;67.10;;;;;;5025782;28;20299;-74
2023/05/05 12:05:00;;;;;;;8.93;7.67;;;25.60;67.80;;;;;;5036132;28;20213;-74
2023/05/05 12:07:30;;;;;;;9.00;8.10;;;25.80;68.70;;;;;;5029018;28;20247;-74
2023/05/05 12:09:59;;;;;;;7.10;6.37;;;25.60;69.30;;;;;;5015975;28;20287;-74
2023/05/05 12:12:36;;;;;;;9.10;7.47;;;25.60;70.50;;;;;;5015964;28;20368;-76
2023/05/05 12:15:06;;;;;;;11.00;7.40;;;25.40;71.80;;;;;;5015282;28;20681;-75
2023/05/05 12:17:38;;;;;;;8.63;6.90;;;25.30;72.30;;;;;;5016200;28;20224;-74
2023/05/05 12:20:08;;;;;;;7.60;6.80;;;25.30;73.10;;;;;;5015895;28;20219;-74
2023/05/05 12:22:37;;;;;;;12.73;8.50;;;25.40;71.40;;;;;;5015307;28;20589;-76
2023/05/05 12:25:07;;;;;;;11.33;7.37;;;25.80;68.30;;;;;;5016460;28;20220;-75
2023/05/05 12:27:37;;;;;;;9.20;8.17;;;26.00;71.80;;;;;;5015244;28;20252;-76
2023/05/05 12:30:14;;;;;;;8.40;7.43;;;26.00;72.50;;;;;;5015893;28;20213;-76
2023/05/05 12:32:42;;;;;;;12.27;7.83;;;26.00;72.50;;;;;;5019043;28;20233;-76
2023/05/05 12:35:12;;;;;;;8.70;7.27;;;26.00;72.60;;;;;;5015593;28;20300;-75
2023/05/05 12:37:40;;;;;;;9.20;7.50;;;25.90;72.00;;;;;;5015037;28;20297;-74
2023/05/05 12:40:45;;;;;;;9.07;7.63;;;26.00;73.30;;;;;;5015543;28;20221;-75
2023/05/05 12:43:32;;;;;;;8.70;7.57;;;25.70;72.50;;;;;;5015538;28;20275;-76
2023/05/05 12:46:06;;;;;;;9.03;5.63;;;25.90;71.40;;;;;;5022755;28;20200;-75
2023/05/05 12:48:36;;;;;;;6.83;6.13;;;26.30;70.10;;;;;;5024930;28;20260;-74
2023/05/05 12:51:16;;;;;;;9.00;6.83;;;26.40;69.20;;;;;;5015137;28;20209;-75
2023/05/05 12:53:44;;;;;;;9.53;6.90;;;26.00;66.80;;;;;;5023278;28;20252;-75
2023/05/05 12:56:35;;;;;;;7.67;6.87;;;26.30;68.80;;;;;;5035781;28;20213;-75
2023/05/05 12:59:06;;;;;;;7.93;7.07;;;25.90;68.40;;;;;;5032972;28;20538;-75
2023/05/05 13:01:35;;;;;;;9.13;6.93;;;25.80;72.40;;;;;;5034789;28;20204;-76
2023/05/05 13:04:11;;;;;;;10.43;7.83;;;25.90;73.40;;;;;;5033297;28;20305;-75
2023/05/05 13:06:41;;;;;;;10.27;7.37;;;25.90;69.00;;;;;;5032800;28;20214;-79
2023/05/05 13:09:21;;;;;;;8.47;7.43;;;26.00;68.20;;;;;;5034725;28;20243;-75
2023/05/05 13:11:50;;;;;;;9.57;7.33;;;25.60;69.20;;;;;;5033216;28;20207;-76